createdAt,value
2023-03-29T00:01:00.169Z,100736.37
2023-03-29T00:06:03.492Z,100734.61
2023-03-29T00:11:05.771Z,100738.06
2023-03-29T00:16:08.463Z,100737.86
2023-03-29T00:21:10.860Z,100741.32
2023-03-29T00:26:12.761Z,100742.93
2023-03-29T00:31:16.804Z,100740.86
2023-03-29T00:36:18.731Z,100740.50
2023-03-29T00:41:21.248Z,100737.52
2023-03-29T00:46:23.945Z,100740.16
2023-03-29T00:51:30.305Z,100738.28
2023-03-29T00:56:37.089Z,100736.10
2023-03-29T01:01:45.334Z,100734.90
2023-03-29T01:06:56.885Z,100738.02
2023-03-29T01:12:02.903Z,100735.90
2023-03-29T01:17:06.113Z,100735.92
2023-03-29T01:22:19.158Z,100732.80
2023-03-29T01:27:49.497Z,100727.72
2023-03-29T01:33:05.130Z,100727.64
2023-03-29T01:38:20.181Z,100729.05
2023-03-29T01:43:34.045Z,100725.61
2023-03-29T01:48:58.749Z,100726.43
2023-03-29T01:54:09.941Z,100723.27
2023-03-29T01:59:18.584Z,100720.63
2023-03-29T02:04:31.511Z,100725.75
2023-03-29T02:09:35.583Z,100731.85
2023-03-29T02:14:37.867Z,100733.98
2023-03-29T02:19:40.017Z,100733.31
2023-03-29T02:24:44.594Z,100733.13
2023-03-29T02:29:47.450Z,100735.36
2023-03-29T02:35:07.051Z,100736.40
2023-03-29T02:40:12.813Z,100738.35
2023-03-29T02:45:17.449Z,100740.93
2023-03-29T02:50:21.094Z,100735.13
2023-03-29T02:55:24.891Z,100734.15
2023-03-29T03:00:28.305Z,100734.89
2023-03-29T03:05:30.181Z,100733.23
2023-03-29T03:10:33.394Z,100732.98
2023-03-29T03:15:35.665Z,100730.83
2023-03-29T03:20:37.856Z,100730.41
2023-03-29T03:25:39.836Z,100730.42
2023-03-29T03:30:41.812Z,100730.00
2023-03-29T03:35:45.947Z,100738.40
2023-03-29T03:40:53.759Z,100739.16
2023-03-29T03:45:56.041Z,100745.27
2023-03-29T03:50:58.587Z,100745.47
2023-03-29T03:56:01.846Z,100745.44
2023-03-29T04:01:07.920Z,100739.77
2023-03-29T04:06:09.707Z,100737.95
2023-03-29T04:11:11.471Z,100739.66
2023-03-29T04:16:13.561Z,100739.73
2023-03-29T04:21:15.936Z,100740.85
2023-03-29T04:26:17.918Z,100740.77
2023-03-29T04:31:19.765Z,100741.48
2023-03-29T04:36:21.678Z,100745.16
2023-03-29T04:41:24.777Z,100746.72
2023-03-29T04:46:27.045Z,100748.90
2023-03-29T04:51:29.245Z,100748.08
2023-03-29T04:56:31.536Z,100750.80
2023-03-29T05:01:34.770Z,100751.77
2023-03-29T05:06:38.329Z,100755.83
2023-03-29T05:11:40.948Z,100753.99
2023-03-29T05:16:43.795Z,100754.54
2023-03-29T05:21:46.559Z,100751.16
2023-03-29T05:26:51.294Z,100745.59
2023-03-29T05:31:53.797Z,100745.63
2023-03-29T05:36:56.491Z,100749.55
2023-03-29T05:41:58.765Z,100755.09
2023-03-29T05:47:01.048Z,100753.91
2023-03-29T05:52:03.640Z,100755.05
2023-03-29T05:57:05.850Z,100755.16
2023-03-29T06:02:07.606Z,100755.98
2023-03-29T06:07:12.041Z,100759.84
2023-03-29T06:12:13.710Z,100763.24
2023-03-29T06:17:16.167Z,100767.00
2023-03-29T06:22:18.191Z,100768.38
2023-03-29T06:27:20.159Z,100770.39
2023-03-29T06:32:22.887Z,100767.42
2023-03-29T06:37:25.049Z,100769.11
2023-03-29T06:42:28.147Z,100767.98
2023-03-29T06:47:31.138Z,100769.19
2023-03-29T06:52:33.133Z,100773.55
2023-03-29T06:57:35.209Z,100771.95
2023-03-29T07:02:37.300Z,100778.55
2023-03-29T07:08:06.714Z,100775.94
2023-03-29T07:13:12.788Z,100769.89
2023-03-29T07:18:14.666Z,100770.65
2023-03-29T07:23:17.523Z,100768.00
2023-03-29T07:28:19.711Z,100767.61
2023-03-29T07:33:21.486Z,100768.95
2023-03-29T07:38:24.831Z,100767.64
2023-03-29T07:43:26.910Z,100765.92
2023-03-29T07:48:29.712Z,100757.06
2023-03-29T07:53:31.891Z,100758.54
2023-03-29T07:58:34.702Z,100757.61
2023-03-29T08:03:36.430Z,100755.66
2023-03-29T08:08:38.498Z,100753.41
2023-03-29T08:13:40.498Z,100753.91
2023-03-29T08:18:42.199Z,100750.67
2023-03-29T08:23:43.975Z,100752.79
2023-03-29T08:28:45.853Z,100755.78
2023-03-29T08:33:47.530Z,100757.10
2023-03-29T08:38:51.142Z,100752.98
2023-03-29T08:44:25.067Z,100748.68
2023-03-29T08:49:27.997Z,100746.73
2023-03-29T08:54:40.804Z,100743.48
2023-03-29T08:59:45.242Z,100734.75
2023-03-29T09:04:48.551Z,100731.36
2023-03-29T09:09:50.535Z,100728.64
2023-03-29T09:15:00.494Z,100722.48
2023-03-29T09:20:40.776Z,100720.36
2023-03-29T09:25:53.622Z,100715.09
2023-03-29T09:31:20.390Z,100711.27
2023-03-29T09:36:40.367Z,100709.27
2023-03-29T09:41:54.735Z,100710.31
2023-03-29T09:47:06.553Z,100702.34
2023-03-29T09:52:16.130Z,100697.59
2023-03-29T09:57:19.589Z,100700.75
2023-03-29T10:02:21.762Z,100696.81
2023-03-29T10:07:33.508Z,100693.85
2023-03-29T10:12:36.200Z,100690.14
2023-03-29T10:17:40.620Z,100683.41
2023-03-29T10:22:49.242Z,100683.30
2023-03-29T10:27:51.153Z,100671.58
2023-03-29T10:32:59.115Z,100662.34
2023-03-29T10:38:04.987Z,100662.55
2023-03-29T10:43:17.269Z,100657.88
2023-03-29T10:48:30.709Z,100648.00
2023-03-29T10:53:34.632Z,100648.17
2023-03-29T10:59:01.495Z,100640.80
2023-03-29T11:04:41.777Z,100634.53
2023-03-29T11:09:43.543Z,100632.89
2023-03-29T11:14:59.958Z,100628.84
2023-03-29T11:20:20.173Z,100622.35
2023-03-29T11:25:41.498Z,100614.59
2023-03-29T11:31:07.374Z,100611.66
2023-03-29T11:36:17.269Z,100605.93
2023-03-29T11:41:30.342Z,100595.75
2023-03-29T11:46:43.907Z,100597.98
2023-03-29T11:51:50.780Z,100594.70
2023-03-29T11:57:19.045Z,100588.41
2023-03-29T12:02:24.182Z,100579.12
2023-03-29T12:07:35.744Z,100570.40
2023-03-29T12:13:00.557Z,100568.35
2023-03-29T12:18:05.251Z,100563.11
2023-03-29T12:23:12.403Z,100560.03
2023-03-29T12:28:36.298Z,100560.98
2023-03-29T12:33:53.018Z,100554.41
2023-03-29T12:38:54.812Z,100551.86
2023-03-29T12:44:01.688Z,100543.51
2023-03-29T12:49:29.010Z,100537.22
2023-03-29T12:54:32.475Z,100532.45
2023-03-29T12:59:45.929Z,100531.42
2023-03-29T13:05:00.959Z,100529.98
2023-03-29T13:10:08.415Z,100527.96
2023-03-29T13:15:16.555Z,100524.13
2023-03-29T13:20:49.545Z,100522.30
2023-03-29T13:25:57.950Z,100518.48
2023-03-29T13:31:08.122Z,100518.33
2023-03-29T13:36:48.525Z,100506.56
2023-03-29T13:41:53.922Z,100499.02
2023-03-29T13:47:16.154Z,100498.42
2023-03-29T13:52:39.734Z,100493.84
2023-03-29T13:57:59.118Z,100489.44
2023-03-29T14:03:07.312Z,100484.25
2023-03-29T14:08:16.809Z,100487.30
2023-03-29T14:13:22.815Z,100483.08
2023-03-29T14:18:27.266Z,100478.77
2023-03-29T14:23:32.889Z,100476.77
2023-03-29T14:28:35.265Z,100476.08
2023-03-29T14:33:37.871Z,100476.56
2023-03-29T14:38:39.950Z,100466.35
2023-03-29T14:43:41.950Z,100464.14
2023-03-29T14:48:44.303Z,100457.25
2023-03-29T14:53:48.033Z,100455.34
2023-03-29T14:58:53.381Z,100449.11
2023-03-29T15:04:07.544Z,100453.31
2023-03-29T15:09:18.636Z,100448.34
2023-03-29T15:14:21.946Z,100445.30
2023-03-29T15:19:25.360Z,100441.73
2023-03-29T15:24:31.251Z,100433.82
2023-03-29T15:29:36.773Z,100424.70
2023-03-29T15:34:38.564Z,100420.94
2023-03-29T15:39:43.933Z,100414.29
2023-03-29T15:44:45.824Z,100407.99
2023-03-29T15:49:47.786Z,100404.85
2023-03-29T15:54:49.865Z,100402.57
2023-03-29T15:59:51.743Z,100399.41
2023-03-29T16:04:55.239Z,100396.72
2023-03-29T16:09:58.030Z,100402.89
2023-03-29T16:15:01.364Z,100399.96
2023-03-29T16:20:06.753Z,100388.02
2023-03-29T16:25:14.365Z,100383.95
2023-03-29T16:30:16.852Z,100379.88
2023-03-29T16:35:25.466Z,100378.30
2023-03-29T16:40:27.968Z,100369.18
2023-03-29T16:45:30.455Z,100364.94
2023-03-29T16:50:32.562Z,100361.48
2023-03-29T16:55:35.322Z,100360.69
2023-03-29T17:00:37.579Z,100362.69
2023-03-29T17:05:40.945Z,100361.21
2023-03-29T17:10:43.921Z,100356.04
2023-03-29T17:15:46.529Z,100355.77
2023-03-29T17:20:55.056Z,100353.45
2023-03-29T17:25:57.021Z,100351.90
2023-03-29T17:31:03.539Z,100351.49
2023-03-29T17:36:06.808Z,100350.13
2023-03-29T17:41:09.623Z,100346.89
2023-03-29T17:46:11.771Z,100349.27
2023-03-29T17:51:14.518Z,100350.77
2023-03-29T17:56:22.546Z,100347.09
2023-03-29T18:01:26.562Z,100350.86
2023-03-29T18:06:30.768Z,100348.86
2023-03-29T18:11:36.350Z,100347.05
2023-03-29T18:16:41.392Z,100350.16
2023-03-29T18:21:45.189Z,100346.80
2023-03-29T18:26:49.291Z,100349.35
2023-03-29T18:31:52.076Z,100349.13
2023-03-29T18:36:54.433Z,100346.98
2023-03-29T18:41:56.337Z,100341.32
2023-03-29T18:46:58.805Z,100346.85
2023-03-29T18:52:01.598Z,100350.08
2023-03-29T18:57:03.906Z,100350.34
2023-03-29T19:02:06.844Z,100348.41
2023-03-29T19:07:09.493Z,100345.91
2023-03-29T19:12:12.712Z,100337.29
2023-03-29T19:17:15.295Z,100336.19
2023-03-29T19:22:17.170Z,100326.78
2023-03-29T19:27:19.253Z,100321.54
2023-03-29T19:32:21.173Z,100317.50
2023-03-29T19:37:23.307Z,100316.61
2023-03-29T19:42:25.316Z,100316.83
2023-03-29T19:47:27.841Z,100312.80
2023-03-29T19:52:30.889Z,100309.09
2023-03-29T19:57:34.103Z,100310.36
2023-03-29T20:02:36.735Z,100306.67
2023-03-29T20:07:38.755Z,100300.36
2023-03-29T20:12:41.107Z,100294.88
2023-03-29T20:17:43.675Z,100296.28
2023-03-29T20:22:45.737Z,100294.73
2023-03-29T20:27:49.242Z,100286.73
2023-03-29T20:32:51.260Z,100279.27
2023-03-29T20:37:53.194Z,100277.85
2023-03-29T20:42:55.380Z,100276.52
2023-03-29T20:48:01.720Z,100272.52
2023-03-29T20:53:05.863Z,100267.70
2023-03-29T20:58:08.484Z,100262.30
2023-03-29T21:03:10.790Z,100248.59
2023-03-29T21:08:17.159Z,100244.16
2023-03-29T21:13:19.036Z,100235.95
2023-03-29T21:18:21.120Z,100221.51
2023-03-29T21:23:22.994Z,100211.10
2023-03-29T21:28:25.175Z,100212.17
2023-03-29T21:33:27.160Z,100205.35
2023-03-29T21:38:29.040Z,100198.01
2023-03-29T21:43:31.007Z,100186.33
2023-03-29T21:48:33.091Z,100186.03
2023-03-29T21:53:35.105Z,100186.19
2023-03-29T21:58:37.380Z,100185.12
2023-03-29T22:03:39.240Z,100193.47
2023-03-29T22:08:41.010Z,100193.05
2023-03-29T22:13:44.222Z,100188.77
2023-03-29T22:18:48.986Z,100177.45
2023-03-29T22:23:53.198Z,100174.81
2023-03-29T22:28:57.021Z,100182.23
2023-03-29T22:34:00.228Z,100178.27
2023-03-29T22:39:02.100Z,100169.93
2023-03-29T22:44:04.397Z,100164.23
2023-03-29T22:49:06.106Z,100157.20
2023-03-29T22:54:07.949Z,100153.34
2023-03-29T22:59:09.725Z,100149.48
2023-03-29T23:04:11.969Z,100149.12
2023-03-29T23:09:15.954Z,100140.19
2023-03-29T23:14:18.616Z,100137.66
2023-03-29T23:19:20.288Z,100136.80
2023-03-29T23:24:22.607Z,100132.44
2023-03-29T23:29:25.890Z,100130.15
2023-03-29T23:34:27.458Z,100123.80
2023-03-29T23:39:29.331Z,100119.75
2023-03-29T23:44:31.420Z,100114.67
2023-03-29T23:49:33.184Z,100113.75
2023-03-29T23:54:34.965Z,100107.37
2023-03-29T23:59:37.251Z,100101.40
